Time;durP1;ratioP1;P1;durP2;ratioP2;P2;SDS_P1;SDS_P2;PMS_P1;PMS_P2;Temp;Humidity;BMP_temperature;BMP_pressure;BME280_temperature;BME280_humidity;BME280_pressure;Samples;Min_cycle;Max_cycle;Signal;HPM_P1;HPM_P2
2023/01/20 00:00:10;;;;;;;7.07;3.97;;;;;;;2.37;80.34;97376.97;5033244;28;20425;-65
2023/01/20 00:02:35;;;;;;;7.32;3.95;;;;;;;2.37;79.70;97373.59;5019722;28;20093;-67
2023/01/20 00:05:01;;;;;;;7.82;4.03;;;;;;;2.44;78.41;97382.44;5043614;28;20033;-64
2023/01/20 00:07:27;;;;;;;7.43;4.30;;;;;;;2.37;79.86;97384.66;5023587;28;20096;-65
2023/01/20 00:09:52;;;;;;;7.15;4.38;;;;;;;2.42;79.88;97381.75;5033767;28;20476;-65
2023/01/20 00:12:17;;;;;;;7.30;3.95;;;;;;;2.43;79.85;97385.94;5004333;28;20025;-65
2023/01/20 00:14:43;;;;;;;8.38;4.45;;;;;;;2.48;80.67;97394.06;5019623;28;20640;-64
2023/01/20 00:17:09;;;;;;;8.10;3.97;;;;;;;2.49;80.36;97391.38;5037229;28;20048;-65
2023/01/20 00:19:34;;;;;;;8.30;4.78;;;;;;;2.48;80.77;97397.47;5021588;28;20399;-65
2023/01/20 00:21:59;;;;;;;8.82;4.75;;;;;;;2.66;81.27;97391.78;5019733;28;20464;-65
2023/01/20 00:24:25;;;;;;;7.47;4.43;;;;;;;2.68;80.76;97401.00;5019848;28;20021;-65
2023/01/20 00:26:51;;;;;;;8.95;4.43;;;;;;;2.68;80.76;97395.84;5036683;28;20105;-65
2023/01/20 00:29:16;;;;;;;8.90;4.40;;;;;;;2.71;82.35;97399.13;5028082;28;20498;-66
2023/01/20 00:31:42;;;;;;;10.50;5.00;;;;;;;2.81;83.52;97407.66;5015712;28;20773;-66
2023/01/20 00:34:08;;;;;;;10.05;5.57;;;;;;;2.85;83.98;97411.63;5005866;28;20018;-65
2023/01/20 00:36:34;;;;;;;8.07;5.00;;;;;;;2.81;85.24;97412.81;5012361;28;20034;-66
2023/01/20 00:39:01;;;;;;;9.65;4.78;;;;;;;2.68;84.02;97377.06;5046286;28;20017;-65
2023/01/20 00:41:26;;;;;;;8.65;4.82;;;;;;;2.96;83.14;97411.56;5036144;28;20037;-66
2023/01/20 00:43:52;;;;;;;8.18;4.38;;;;;;;2.91;84.12;97410.31;5007264;28;20484;-64
2023/01/20 00:46:17;;;;;;;7.38;4.28;;;;;;;2.87;84.87;97407.19;5019520;28;20503;-64
2023/01/20 00:48:43;;;;;;;7.47;4.25;;;;;;;2.80;86.59;97406.06;5037523;28;20017;-65
2023/01/20 00:51:09;;;;;;;8.13;4.50;;;;;;;2.97;85.55;97422.66;5034944;28;20036;-67
2023/01/20 00:53:36;;;;;;;8.98;4.40;;;;;;;2.97;84.46;97420.88;5004759;28;20075;-65
2023/01/20 00:56:03;;;;;;;9.25;4.85;;;;;;;2.96;84.21;97423.59;5018943;28;20029;-64
2023/01/20 00:58:28;;;;;;;7.50;4.80;;;;;;;2.92;84.67;97427.34;5024831;28;20029;-64
2023/01/20 01:00:54;;;;;;;7.13;4.18;;;;;;;2.83;85.53;97427.16;5019128;28;20688;-65
2023/01/20 01:03:21;;;;;;;8.02;4.85;;;;;;;2.92;85.45;97435.88;5022200;28;20119;-65
2023/01/20 01:05:46;;;;;;;11.63;4.68;;;;;;;2.92;84.18;97435.88;5016483;28;20017;-65
2023/01/20 01:08:12;;;;;;;7.35;4.28;;;;;;;2.78;84.54;97436.19;5017410;28;20060;-66
2023/01/20 01:10:39;;;;;;;8.43;4.57;;;;;;;2.76;84.89;97441.44;5038049;28;20025;-65
2023/01/20 01:13:05;;;;;;;8.82;4.88;;;;;;;2.84;84.85;97443.38;5018883;28;20017;-64
2023/01/20 01:15:30;;;;;;;9.05;5.05;;;;;;;2.42;86.35;97415.91;5005396;28;20032;-65
2023/01/20 01:17:57;;;;;;;9.07;5.30;;;;;;;2.69;85.22;97445.44;5020195;28;20027;-65
2023/01/20 01:20:23;;;;;;;9.85;5.45;;;;;;;2.68;86.16;97434.38;5024464;28;20055;-66
2023/01/20 01:22:49;;;;;;;9.60;5.85;;;;;;;2.87;85.65;97453.41;5025041;28;20495;-65
2023/01/20 01:25:14;;;;;;;11.80;5.47;;;;;;;2.82;85.52;97450.38;5017324;28;20040;-66
2023/01/20 01:27:40;;;;;;;9.65;5.18;;;;;;;2.82;85.92;97447.81;5020996;28;20025;-65
2023/01/20 01:30:06;;;;;;;10.80;5.90;;;;;;;2.86;86.05;97457.69;5042092;28;20467;-64
2023/01/20 01:32:31;;;;;;;11.65;5.93;;;;;;;2.81;86.33;97456.44;5018577;28;20120;-66
2023/01/20 01:34:57;;;;;;;9.68;5.78;;;;;;;2.77;86.96;97460.22;5016970;28;20031;-65
2023/01/20 01:37:23;;;;;;;11.07;6.72;;;;;;;2.84;86.68;97463.91;5008807;28;20155;-66
2023/01/20 01:39:49;;;;;;;10.75;6.47;;;;;;;2.86;87.62;97460.28;5029122;28;20025;-66
2023/01/20 01:42:17;;;;;;;10.27;6.22;;;;;;;2.80;87.17;97465.09;5039564;28;20025;-65
2023/01/20 01:45:10;;;;;;;9.38;5.93;;;;;;;2.74;86.98;97463.84;5015054;28;20483;-66
2023/01/20 01:47:48;;;;;;;14.30;7.72;;;;;;;2.73;87.38;97435.75;5036492;28;20596;-65
2023/01/20 01:50:18;;;;;;;12.18;7.60;;;;;;;2.91;87.35;97459.09;5011910;28;20037;-66
2023/01/20 01:52:46;;;;;;;10.60;7.13;;;;;;;2.91;87.88;97462.47;5012578;28;20017;-65
2023/01/20 01:55:13;;;;;;;12.07;7.30;;;;;;;2.64;86.77;97427.03;5040991;28;20038;-67
2023/01/20 01:57:38;;;;;;;12.65;6.45;;;;;;;2.79;87.64;97463.47;5023034;28;20025;-64
2023/01/20 02:00:05;;;;;;;10.55;6.45;;;;;;;2.70;86.69;97452.19;5022175;28;20106;-64
2023/01/20 02:02:32;;;;;;;11.73;6.70;;;;;;;2.75;86.77;97455.19;5014745;28;20291;-64
2023/01/20 02:04:57;;;;;;;11.38;6.82;;;;;;;2.80;86.32;97454.84;5006066;28;20037;-66
2023/01/20 02:07:23;;;;;;;11.45;6.72;;;;;;;2.73;87.01;97441.69;5024297;28;20051;-65
2023/01/20 02:09:49;;;;;;;10.77;6.47;;;;;;;2.78;87.50;97451.59;5027072;28;20060;-64
2023/01/20 02:12:18;;;;;;;11.20;6.40;;;;;;;2.83;86.34;97445.13;5020421;28;20018;-64
2023/01/20 02:14:48;;;;;;;10.88;6.80;;;;;;;2.44;86.37;97396.06;5015818;28;20107;-66
2023/01/20 02:17:20;;;;;;;12.18;7.00;;;;;;;2.81;88.19;97452.16;5042824;28;20029;-65
2023/01/20 02:20:30;;;;;;;11.57;6.30;;;;;;;2.71;88.36;97447.88;5023236;28;20384;-66
2023/01/20 02:23:02;;;;;;;11.98;7.13;;;;;;;2.57;88.06;97444.66;5042150;28;20402;-65
2023/01/20 02:26:01;;;;;;;11.07;6.25;;;;;;;2.28;88.95;97398.22;5016248;28;20021;-67
2023/01/20 02:28:58;;;;;;;10.73;6.35;;;;;;;2.57;88.82;97442.09;5019893;28;20029;-64
2023/01/20 02:31:43;;;;;;;10.10;6.63;;;;;;;2.33;88.30;97400.44;5021818;28;20045;-66
2023/01/20 02:34:31;;;;;;;11.50;6.63;;;;;;;2.49;88.75;97431.63;5034327;28;20024;-64
2023/01/20 02:37:00;;;;;;;14.02;6.43;;;;;;;2.48;89.77;97423.13;5024566;28;20024;-64
2023/01/20 02:39:54;;;;;;;9.95;6.28;;;;;;;2.19;89.80;97381.00;5013822;28;20052;-65
2023/01/20 02:42:39;;;;;;;11.35;6.28;;;;;;;2.36;90.19;97436.13;5014522;28;20110;-65
2023/01/20 02:45:21;;;;;;;9.38;5.90;;;;;;;2.13;88.68;97389.19;5011441;28;20036;-65
2023/01/20 02:48:21;;;;;;;9.18;5.43;;;;;;;2.29;86.88;97433.22;5034601;28;20341;-66
2023/01/20 02:51:07;;;;;;;10.27;5.18;;;;;;;2.27;86.22;97432.53;4970025;28;20124;-66
2023/01/20 02:53:39;;;;;;;8.65;4.85;;;;;;;2.18;85.90;97426.38;5023311;28;20087;-65
2023/01/20 02:56:05;;;;;;;10.07;5.47;;;;;;;2.28;86.15;97434.97;5032498;28;20033;-65
2023/01/20 02:58:36;;;;;;;9.55;5.13;;;;;;;2.40;85.97;97434.94;5024582;28;20025;-65
2023/01/20 03:01:11;;;;;;;8.60;5.32;;;;;;;2.26;85.24;97420.63;5024289;28;20024;-65
2023/01/20 03:03:38;;;;;;;9.52;4.85;;;;;;;2.39;84.98;97436.69;5030468;28;20040;-65
2023/01/20 03:06:12;;;;;;;9.55;5.40;;;;;;;2.32;85.29;97427.84;5008413;28;20272;-65
2023/01/20 03:08:39;;;;;;;9.60;5.63;;;;;;;2.27;85.39;97428.22;5032541;28;20033;-65
2023/01/20 03:11:06;;;;;;;10.40;5.50;;;;;;;2.31;86.10;97434.72;5022042;28;20024;-65
2023/01/20 03:13:42;;;;;;;8.90;5.20;;;;;;;2.27;86.35;97422.28;5017945;28;20057;-65
2023/01/20 03:16:17;;;;;;;9.90;5.38;;;;;;;2.31;87.65;97432.16;5022023;28;20025;-65
2023/01/20 03:18:43;;;;;;;10.00;5.18;;;;;;;2.34;86.82;97428.53;5019702;28;20029;-66
2023/01/20 03:21:09;;;;;;;12.23;5.75;;;;;;;2.39;87.02;97430.72;5021055;28;20074;-65
2023/01/20 03:23:37;;;;;;;10.07;5.22;;;;;;;2.42;87.41;97436.44;5008464;28;20030;-64
2023/01/20 03:26:09;;;;;;;10.13;5.80;;;;;;;2.30;87.59;97430.53;5024144;28;20463;-65
2023/01/20 03:28:35;;;;;;;10.00;5.60;;;;;;;2.32;87.31;97430.41;5024315;28;20108;-65
2023/01/20 03:31:05;;;;;;;8.73;5.20;;;;;;;2.28;88.00;97434.16;5007010;28;20020;-64
2023/01/20 03:33:31;;;;;;;9.57;5.10;;;;;;;2.22;86.97;97420.06;5035462;28;20029;-65
2023/01/20 03:35:56;;;;;;;9.40;5.28;;;;;;;2.03;86.34;97384.00;5022006;28;20587;-67
2023/01/20 03:38:21;;;;;;;9.55;5.60;;;;;;;2.34;85.84;97427.72;5034054;28;20553;-65
2023/01/20 03:41:00;;;;;;;9.50;5.15;;;;;;;2.34;85.57;97435.41;5022562;28;20040;-65
2023/01/20 03:43:35;;;;;;;9.88;5.55;;;;;;;2.39;85.36;97439.25;5020767;28;20142;-64
2023/01/20 03:46:18;;;;;;;9.52;5.53;;;;;;;2.35;85.97;97427.59;5030089;28;20130;-65
2023/01/20 03:48:57;;;;;;;8.93;5.40;;;;;;;2.36;85.11;97416.41;5013655;28;20067;-66
2023/01/20 03:51:38;;;;;;;11.27;6.13;;;;;;;2.37;85.19;97422.34;5021585;28;20408;-65
2023/01/20 03:54:10;;;;;;;9.75;5.32;;;;;;;2.40;84.27;97424.66;5023238;28;20047;-66
2023/01/20 03:57:02;;;;;;;8.48;4.60;;;;;;;2.34;83.78;97420.84;4991628;28;20044;-66
2023/01/20 03:59:32;;;;;;;9.50;5.30;;;;;;;2.01;84.47;97383.28;5010800;28;20332;-65
2023/01/20 04:02:01;;;;;;;9.77;5.32;;;;;;;2.20;83.61;97414.22;5031398;28;20024;-65
2023/01/20 04:04:30;;;;;;;13.18;5.90;;;;;;;2.29;83.17;97420.41;5020739;28;20033;-66
2023/01/20 04:06:55;;;;;;;8.80;4.85;;;;;;;2.11;81.88;97391.88;5019811;28;20013;-65
2023/01/20 04:09:24;;;;;;;8.55;4.97;;;;;;;2.35;81.16;97413.97;5021711;28;20052;-66
2023/01/20 04:11:49;;;;;;;8.93;5.30;;;;;;;2.25;80.87;97398.50;5033216;28;20021;-66
2023/01/20 04:14:15;;;;;;;10.00;5.55;;;;;;;2.31;79.92;97421.09;5011248;28;20515;-65
2023/01/20 04:16:41;;;;;;;12.25;5.03;;;;;;;2.40;79.59;97416.97;5020422;28;20013;-66
2023/01/20 04:19:06;;;;;;;8.35;4.70;;;;;;;2.37;78.40;97404.38;5016538;28;20404;-66
2023/01/20 04:21:41;;;;;;;8.95;4.60;;;;;;;2.34;79.26;97415.72;5018733;28;20556;-66
2023/01/20 04:24:12;;;;;;;9.45;4.75;;;;;;;2.34;79.51;97415.72;5008229;28;20029;-67
2023/01/20 04:26:37;;;;;;;8.57;4.57;;;;;;;2.39;78.14;97421.31;5034662;28;20765;-65
2023/01/20 04:29:07;;;;;;;10.20;5.32;;;;;;;2.24;78.15;97407.13;5032081;28;20043;-65
2023/01/20 04:31:33;;;;;;;;;;;;;;;2.29;77.59;97425.53;5016828;28;20668;-66
2023/01/20 04:33:59;;;;;;;8.88;5.00;;;;;;;2.25;76.80;97419.81;5022181;28;19920;-65
2023/01/20 04:36:24;;;;;;;8.23;4.70;;;;;;;2.23;76.93;97418.31;5037322;28;20399;-65
2023/01/20 04:38:51;;;;;;;9.32;4.90;;;;;;;2.17;75.69;97408.53;5019521;28;20104;-65
2023/01/20 04:41:16;;;;;;;8.77;4.22;;;;;;;2.15;76.00;97402.72;5023567;28;20044;-68
2023/01/20 04:43:44;;;;;;;8.25;4.63;;;;;;;2.15;75.34;97400.16;5039227;28;20168;-67
2023/01/20 04:46:13;;;;;;;11.13;4.80;;;;;;;2.16;75.93;97412.84;5020535;28;20797;-66
2023/01/20 04:48:39;;;;;;;7.60;4.00;;;;;;;2.20;75.20;97410.88;5029358;28;20120;-65
2023/01/20 04:51:05;;;;;;;9.15;4.53;;;;;;;2.16;75.60;97407.72;5006470;28;20128;-65
2023/01/20 04:53:31;;;;;;;10.38;4.47;;;;;;;2.05;75.54;97392.38;5014759;28;20147;-66
2023/01/20 04:55:56;;;;;;;9.02;4.90;;;;;;;2.20;75.19;97416.81;5016848;28;20131;-67
2023/01/20 04:58:23;;;;;;;8.20;4.22;;;;;;;2.27;74.62;97412.00;5016525;28;20087;-64
2023/01/20 05:00:48;;;;;;;7.63;4.15;;;;;;;2.24;74.54;97425.06;5016995;28;20086;-64
2023/01/20 05:03:14;;;;;;;8.20;4.25;;;;;;;2.15;74.18;97421.47;5018409;28;20105;-65
2023/01/20 05:05:39;;;;;;;8.25;4.32;;;;;;;2.17;74.26;97413.66;5022474;28;20029;-66
2023/01/20 05:08:05;;;;;;;7.55;3.72;;;;;;;2.17;74.89;97418.78;5018071;28;20451;-65
2023/01/20 05:10:31;;;;;;;7.70;3.40;;;;;;;1.98;74.67;97386.09;5039635;28;20040;-66
2023/01/20 05:12:58;;;;;;;7.53;3.97;;;;;;;2.13;74.58;97428.47;5030714;28;20099;-65
2023/01/20 05:15:24;;;;;;;7.45;4.18;;;;;;;2.10;75.14;97423.59;5037089;28;20040;-67
2023/01/20 05:17:49;;;;;;;7.13;3.60;;;;;;;2.05;74.72;97416.25;5016649;28;20431;-64
2023/01/20 05:20:15;;;;;;;9.13;3.85;;;;;;;1.92;73.35;97400.22;5035102;28;20061;-65
2023/01/20 05:22:40;;;;;;;8.35;4.10;;;;;;;2.07;73.05;97419.50;5037881;28;20033;-66
2023/01/20 05:25:06;;;;;;;7.25;3.47;;;;;;;2.02;72.95;97429.31;5009736;28;20060;-67
2023/01/20 05:27:36;;;;;;;6.55;3.58;;;;;;;2.08;72.34;97426.28;5037607;28;20021;-67
2023/01/20 05:30:03;;;;;;;7.70;3.90;;;;;;;2.13;72.63;97440.50;5007554;28;20021;-65
2023/01/20 05:32:28;;;;;;;6.30;3.30;;;;;;;2.02;72.88;97436.19;5033403;28;20096;-65
2023/01/20 05:34:54;;;;;;;6.88;3.78;;;;;;;2.01;72.54;97447.38;5025224;28;20033;-65
2023/01/20 05:37:19;;;;;;;7.18;3.53;;;;;;;2.01;73.57;97445.66;5031932;28;20032;-65
2023/01/20 05:39:45;;;;;;;7.82;4.00;;;;;;;1.94;75.41;97441.13;5007399;28;20645;-65
2023/01/20 05:42:10;;;;;;;7.82;3.95;;;;;;;1.92;76.99;97441.25;5006353;28;20021;-66
2023/01/20 05:44:36;;;;;;;8.35;4.40;;;;;;;1.60;77.19;97397.59;5038473;28;20153;-66
2023/01/20 05:47:01;;;;;;;7.93;4.00;;;;;;;1.95;76.79;97450.44;5027316;28;20581;-66
2023/01/20 05:49:27;;;;;;;6.97;3.47;;;;;;;1.95;76.30;97453.00;5009027;28;20029;-65
2023/01/20 05:51:52;;;;;;;5.97;3.17;;;;;;;1.62;75.95;97404.22;5024632;28;20043;-67
2023/01/20 05:54:18;;;;;;;8.48;3.40;;;;;;;1.86;75.86;97447.66;5042056;28;20170;-68
2023/01/20 05:56:43;;;;;;;10.77;3.92;;;;;;;1.84;74.17;97446.13;5018473;28;20120;-65
2023/01/20 05:59:09;;;;;;;6.28;3.15;;;;;;;1.78;74.53;97449.97;5024715;28;20033;-66
2023/01/20 06:01:34;;;;;;;7.28;3.00;;;;;;;1.79;74.36;97458.47;5027647;28;20145;-66
2023/01/20 06:04:00;;;;;;;6.50;3.17;;;;;;;1.82;73.75;97450.56;5041336;28;20040;-66
2023/01/20 06:06:26;;;;;;;6.65;3.40;;;;;;;1.79;72.85;97450.78;5023843;28;20306;-65
2023/01/20 06:08:52;;;;;;;6.97;2.75;;;;;;;1.41;72.00;97405.88;5018246;28;20057;-67
2023/01/20 06:11:19;;;;;;;8.25;2.90;;;;;;;1.64;71.95;97453.63;5012919;28;20033;-65
2023/01/20 06:13:48;;;;;;;8.27;2.65;;;;;;;1.69;70.70;97466.88;5016257;28;20033;-65
2023/01/20 06:16:15;;;;;;;5.33;2.57;;;;;;;1.67;69.28;97467.94;5017999;28;20108;-66
2023/01/20 06:18:41;;;;;;;6.40;2.72;;;;;;;1.66;66.70;97461.16;5026385;28;20334;-66
2023/01/20 06:21:06;;;;;;;6.00;2.35;;;;;;;1.73;65.33;97459.75;5023589;28;20111;-66
2023/01/20 06:23:32;;;;;;;5.07;1.90;;;;;;;1.78;63.95;97457.66;5042017;28;20033;-67
2023/01/20 06:26:02;;;;;;;4.82;2.10;;;;;;;1.82;64.16;97463.38;5039049;28;20051;-66
2023/01/20 06:28:28;;;;;;;4.53;2.00;;;;;;;1.76;64.68;97458.72;5014120;28;20025;-66
2023/01/20 06:31:09;;;;;;;5.30;1.90;;;;;;;1.70;63.04;97454.91;5003021;28;20034;-67
2023/01/20 06:33:35;;;;;;;7.40;1.70;;;;;;;1.69;62.51;97460.94;5004555;28;20027;-64
2023/01/20 06:36:03;;;;;;;5.13;2.10;;;;;;;1.66;59.33;97456.88;5026459;28;20029;-65
2023/01/20 06:38:31;;;;;;;3.50;1.38;;;;;;;1.72;60.79;97471.78;5037552;28;20044;-66
2023/01/20 06:41:00;;;;;;;3.40;1.55;;;;;;;1.67;59.24;97473.06;5021795;28;20119;-67
2023/01/20 06:43:30;;;;;;;3.90;1.40;;;;;;;1.73;57.58;97473.41;5038829;28;20503;-65
2023/01/20 06:46:03;;;;;;;;;;;;;;;1.64;57.89;97468.16;5011752;28;20032;-64
2023/01/20 06:48:29;;;;;;;5.15;1.67;;;;;;;1.61;57.17;97479.47;5025102;28;19913;-66
2023/01/20 06:51:04;;;;;;;4.30;1.45;;;;;;;1.60;57.25;97485.50;5020272;28;20391;-65
2023/01/20 06:53:30;;;;;;;3.80;1.27;;;;;;;1.57;54.86;97483.19;5018650;28;20609;-64
2023/01/20 06:55:56;;;;;;;3.95;1.20;;;;;;;1.68;53.23;97485.75;5010369;28;20033;-66
2023/01/20 06:58:27;;;;;;;4.70;1.40;;;;;;;1.61;55.05;97494.03;5018984;28;20453;-64
2023/01/20 07:00:54;;;;;;;5.13;1.48;;;;;;;1.63;55.87;97502.41;5000425;28;20029;-66
2023/01/20 07:03:19;;;;;;;4.45;1.55;;;;;;;1.73;55.91;97493.09;5018797;28;20026;-66
2023/01/20 07:06:23;;;;;;;4.15;1.42;;;;;;;1.67;56.54;97501.25;5033545;28;20082;-65
2023/01/20 07:08:49;;;;;;;4.43;1.58;;;;;;;1.64;57.80;97497.19;5024424;28;20037;-65
2023/01/20 07:11:14;;;;;;;6.68;1.70;;;;;;;1.62;58.46;97490.53;5026269;28;20036;-65
2023/01/20 07:13:40;;;;;;;6.55;1.48;;;;;;;1.61;57.54;97499.16;5025701;28;20052;-67
2023/01/20 07:16:06;;;;;;;5.60;1.40;;;;;;;1.57;56.79;97508.81;5009489;28;20075;-66
2023/01/20 07:18:31;;;;;;;4.03;1.50;;;;;;;1.56;56.51;97511.50;5023984;28;20033;-66
2023/01/20 07:20:57;;;;;;;3.97;1.30;;;;;;;1.54;56.19;97503.91;5044217;28;20067;-65
2023/01/20 07:23:23;;;;;;;4.65;1.67;;;;;;;1.26;56.41;97462.44;5025088;28;20034;-65
2023/01/20 07:25:59;;;;;;;2.75;0.85;;;;;;;1.53;53.26;97497.16;5025227;28;20021;-65
2023/01/20 07:28:25;;;;;;;3.83;1.40;;;;;;;1.40;53.05;97468.28;5040224;28;20064;-66
2023/01/20 07:30:50;;;;;;;4.00;1.40;;;;;;;1.65;52.86;97508.25;5022338;28;20060;-66
2023/01/20 07:33:16;;;;;;;3.58;1.30;;;;;;;1.47;51.68;97472.81;5025919;28;20467;-67
2023/01/20 07:35:41;;;;;;;3.28;1.08;;;;;;;1.53;50.95;97489.47;5021209;28;20104;-66
2023/01/20 07:38:07;;;;;;;2.97;1.08;;;;;;;1.63;51.26;97528.84;5042836;28;20025;-67
2023/01/20 07:40:32;;;;;;;3.95;1.20;;;;;;;1.34;49.74;97472.09;5024797;28;20052;-67
2023/01/20 07:42:58;;;;;;;3.00;1.00;;;;;;;1.69;49.51;97527.56;5009144;28;20025;-66
2023/01/20 07:45:23;;;;;;;3.08;1.00;;;;;;;1.42;48.42;97497.94;5023524;28;20036;-67
2023/01/20 07:47:49;;;;;;;3.58;0.82;;;;;;;1.70;48.29;97545.41;5018967;28;20021;-66
2023/01/20 07:50:15;;;;;;;3.08;1.10;;;;;;;1.46;47.87;97508.78;5041908;28;20203;-67
2023/01/20 07:52:42;;;;;;;2.88;0.85;;;;;;;1.70;46.78;97542.84;5021088;28;20112;-67
2023/01/20 07:55:08;;;;;;;2.45;0.80;;;;;;;1.72;46.66;97547.84;5023359;28;20445;-67
2023/01/20 07:57:33;;;;;;;3.10;0.82;;;;;;;1.73;46.40;97555.44;5022526;28;20059;-68
2023/01/20 07:59:59;;;;;;;2.63;0.95;;;;;;;1.75;45.99;97554.47;5020964;28;20460;-67
2023/01/20 08:02:24;;;;;;;2.35;0.80;;;;;;;1.95;43.50;97556.34;5008013;28;20025;-66
2023/01/20 08:04:50;;;;;;;2.97;0.75;;;;;;;1.91;42.69;97553.19;5003308;28;20398;-67
2023/01/20 08:07:16;;;;;;;1.88;0.65;;;;;;;1.74;41.44;97515.22;5031073;28;20071;-67
2023/01/20 08:09:42;;;;;;;3.17;0.70;;;;;;;2.03;41.06;97556.59;5012677;28;20032;-68
2023/01/20 08:12:08;;;;;;;2.33;0.75;;;;;;;1.72;42.24;97520.47;5005711;28;20492;-66
2023/01/20 08:14:33;;;;;;;2.40;0.80;;;;;;;2.04;42.38;97570.22;5007178;28;20035;-68
2023/01/20 08:16:59;;;;;;;3.92;0.77;;;;;;;2.03;43.47;97558.34;5024879;28;20064;-65
2023/01/20 08:19:28;;;;;;;3.30;0.80;;;;;;;2.03;44.18;97569.41;5021433;28;20056;-65
2023/01/20 08:21:54;;;;;;;4.65;0.93;;;;;;;1.87;44.25;97568.94;5025481;28;20024;-66
2023/01/20 08:24:19;;;;;;;1.95;0.70;;;;;;;1.88;44.70;97573.97;5015821;28;20036;-67
2023/01/20 08:26:45;;;;;;;3.28;0.80;;;;;;;1.87;44.49;97572.31;5015367;28;20051;-66
2023/01/20 08:29:11;;;;;;;2.75;0.90;;;;;;;1.79;45.38;97572.09;5007898;28;20119;-66
2023/01/20 08:31:37;;;;;;;3.35;1.00;;;;;;;1.85;45.58;97576.75;5040683;28;20028;-66
2023/01/20 08:34:03;;;;;;;2.28;0.80;;;;;;;1.88;44.95;97585.94;5023559;28;20032;-67
2023/01/20 08:36:32;;;;;;;2.78;0.80;;;;;;;1.88;46.12;97591.91;5005918;28;20939;-66
2023/01/20 08:39:00;;;;;;;2.42;0.80;;;;;;;1.83;46.32;97594.00;5009141;28;20033;-66
2023/01/20 08:41:29;;;;;;;2.75;0.93;;;;;;;1.81;45.71;97582.25;5034272;28;20724;-66
2023/01/20 08:43:58;;;;;;;3.13;0.80;;;;;;;2.03;44.07;97600.19;5020899;28;20078;-66
2023/01/20 08:46:23;;;;;;;2.13;0.80;;;;;;;1.95;44.07;97605.06;5016909;28;20144;-66
2023/01/20 08:48:50;;;;;;;3.42;0.85;;;;;;;2.02;45.02;97610.56;5005965;28;20086;-65
2023/01/20 08:51:28;;;;;;;1.38;0.68;;;;;;;2.04;45.61;97598.44;5009101;28;20160;-66
2023/01/20 08:53:54;;;;;;;2.95;0.93;;;;;;;1.69;45.94;97561.69;5015752;28;20037;-66
2023/01/20 08:56:20;;;;;;;4.57;1.73;;;;;;;2.01;45.52;97609.75;5008386;28;20025;-67
2023/01/20 08:58:45;;;;;;;4.68;1.63;;;;;;;1.96;44.81;97608.47;5007997;28;20506;-67
2023/01/20 09:01:16;;;;;;;3.58;1.30;;;;;;;1.95;45.75;97612.75;5019502;28;20904;-66
2023/01/20 09:03:42;;;;;;;2.95;0.88;;;;;;;2.01;47.91;97620.00;5023572;28;20040;-66
2023/01/20 09:06:09;;;;;;;3.78;0.85;;;;;;;2.04;45.65;97619.75;5023533;28;20139;-66
2023/01/20 09:08:36;;;;;;;4.18;1.30;;;;;;;1.80;45.47;97580.59;5016339;28;20021;-67
2023/01/20 09:11:11;;;;;;;4.10;1.38;;;;;;;1.99;46.29;97623.59;5038510;28;20025;-65
2023/01/20 09:13:37;;;;;;;4.18;1.20;;;;;;;2.08;49.24;97634.00;5006905;28;20041;-66
2023/01/20 09:16:03;;;;;;;4.43;1.20;;;;;;;2.06;49.01;97635.03;5035852;28;20075;-66
2023/01/20 09:18:30;;;;;;;3.20;0.90;;;;;;;1.88;49.10;97603.88;5023849;28;20064;-66
2023/01/20 09:20:59;;;;;;;6.65;1.23;;;;;;;1.92;48.17;97613.00;5020469;28;20028;-64
2023/01/20 09:23:25;;;;;;;3.33;1.05;;;;;;;2.21;49.28;97645.88;5034917;28;20037;-67
2023/01/20 09:25:51;;;;;;;6.07;1.70;;;;;;;1.97;49.27;97617.78;5005695;28;20089;-67
2023/01/20 09:28:17;;;;;;;4.88;1.98;;;;;;;2.18;51.58;97653.81;5032448;28;20037;-67
2023/01/20 09:30:42;;;;;;;5.72;2.30;;;;;;;2.15;52.24;97648.91;5017851;28;20616;-67
2023/01/20 09:33:11;;;;;;;7.38;1.77;;;;;;;2.14;52.43;97663.50;5014948;28;20124;-64
2023/01/20 09:35:37;;;;;;;5.45;1.50;;;;;;;2.13;51.25;97674.69;5008647;28;20076;-65
2023/01/20 09:44:34;;;;;;;4.35;1.92;;;;;;;1.56;48.90;97630.16;5039210;28;20032;-66
2023/01/20 09:47:20;;;;;;;4.68;1.63;;;;;;;1.89;49.72;97672.19;5043306;28;20025;-66
2023/01/20 09:53:03;;;;;;;5.03;1.92;;;;;;;1.46;52.83;97644.56;5036915;28;20074;-65
2023/01/20 09:55:55;;;;;;;5.20;1.67;;;;;;;1.80;52.84;97683.94;5021964;28;20040;-66
2023/01/20 09:58:44;;;;;;;4.90;1.50;;;;;;;1.73;55.07;97686.16;5023853;28;20022;-65
2023/01/20 10:01:10;;;;;;;;;;;;;;;1.80;54.96;97678.81;5043612;28;20446;-65
2023/01/20 10:03:38;;;;;;;6.05;1.38;;;;;;;1.90;53.34;97672.09;5039825;28;19912;-66
2023/01/20 10:06:11;;;;;;;5.88;1.30;;;;;;;1.93;56.15;97676.16;5031459;28;20028;-66
2023/01/20 10:08:46;;;;;;;4.15;1.60;;;;;;;1.73;54.13;97677.63;5029504;28;20162;-67
2023/01/20 10:11:14;;;;;;;5.40;1.58;;;;;;;1.82;54.31;97676.13;5027106;28;20022;-68
2023/01/20 10:13:50;;;;;;;5.68;1.50;;;;;;;1.91;53.85;97668.56;5016023;28;20110;-68
2023/01/20 10:16:44;;;;;;;4.15;1.40;;;;;;;2.07;54.05;97670.00;5027993;28;20110;-68
2023/01/20 10:19:16;;;;;;;4.50;1.55;;;;;;;2.20;54.83;97670.72;5011406;28;20025;-67
2023/01/20 10:21:55;;;;;;;6.55;2.45;;;;;;;2.22;54.88;97655.22;5012149;28;20676;-67
2023/01/20 10:24:30;;;;;;;5.97;2.40;;;;;;;2.28;55.24;97618.84;5011997;28;20021;-67
2023/01/20 10:27:03;;;;;;;5.05;1.95;;;;;;;2.63;54.65;97662.34;5027178;28;20032;-67
2023/01/20 10:29:44;;;;;;;4.57;1.75;;;;;;;2.60;53.73;97654.06;5017461;28;20018;-67
2023/01/20 10:33:05;;;;;;;7.78;1.88;;;;;;;2.80;53.70;97662.78;5009163;28;20072;-68
2023/01/20 10:35:36;;;;;;;4.82;1.77;;;;;;;2.86;53.06;97660.53;5009203;28;20489;-68
2023/01/20 10:38:06;;;;;;;4.88;2.20;;;;;;;2.87;53.88;97658.81;5019199;28;20029;-68
2023/01/20 10:40:43;;;;;;;5.25;2.10;;;;;;;2.92;54.81;97655.88;5030019;28;20055;-68
2023/01/20 10:43:14;;;;;;;6.28;2.10;;;;;;;2.98;54.01;97652.84;5024936;28;20047;-68
2023/01/20 10:46:07;;;;;;;4.40;1.85;;;;;;;3.15;53.53;97665.16;5010987;28;20024;-67
2023/01/20 10:48:57;;;;;;;6.35;2.13;;;;;;;3.21;52.20;97663.84;5011054;28;20029;-68
2023/01/20 10:51:37;;;;;;;;;;;;;;;3.26;51.60;97654.84;5027562;28;20032;-67
2023/01/20 10:54:30;;;;;;;4.32;1.50;;;;;;;3.35;50.70;97660.19;5027053;28;19919;-68
2023/01/20 10:56:58;;;;;;;4.55;1.80;;;;;;;3.29;47.29;97617.81;5026423;28;20759;-67
2023/01/20 10:59:37;;;;;;;4.30;1.60;;;;;;;3.59;47.94;97662.56;4994015;28;20040;-68
2023/01/20 11:02:14;;;;;;;3.55;1.35;;;;;;;3.30;50.28;97621.22;5010034;28;20037;-67
2023/01/20 11:04:40;;;;;;;4.30;1.50;;;;;;;3.52;48.14;97636.50;5025257;28;20025;-67
2023/01/20 11:07:15;;;;;;;3.83;1.33;;;;;;;3.88;46.30;97651.66;5026260;28;20052;-68
2023/01/20 11:09:41;;;;;;;2.78;0.95;;;;;;;3.96;43.68;97644.13;5026013;28;20060;-68
2023/01/20 11:12:19;;;;;;;2.67;1.00;;;;;;;3.95;45.03;97650.22;5010412;28;20031;-68
2023/01/20 11:14:45;;;;;;;2.88;1.10;;;;;;;3.96;44.27;97641.53;5016463;28;20132;-68
2023/01/20 11:17:17;;;;;;;3.20;1.10;;;;;;;3.84;44.98;97622.81;5017706;28;20961;-68
2023/01/20 11:19:54;;;;;;;3.15;1.13;;;;;;;3.99;45.72;97649.00;5014508;28;20429;-69
2023/01/20 11:22:43;;;;;;;2.95;0.90;;;;;;;4.33;38.67;97641.06;5008634;28;20063;-68
2023/01/20 11:25:22;;;;;;;2.97;0.95;;;;;;;4.58;36.15;97594.28;5024541;28;20025;-68
2023/01/20 11:27:48;;;;;;;1.87;0.60;;;;;;;4.97;34.71;97635.56;5009268;28;20037;-68
2023/01/20 11:30:26;;;;;;;3.17;0.60;;;;;;;5.16;31.06;97639.09;5024685;28;20688;-68
2023/01/20 11:33:16;;;;;;;0.75;0.30;;;;;;;5.51;32.47;97636.00;5023302;28;20021;-68
2023/01/20 11:36:03;;;;;;;0.93;0.40;;;;;;;5.58;31.47;97631.94;5040926;28;20356;-68
2023/01/20 11:38:49;;;;;;;0.80;0.35;;;;;;;5.72;30.61;97624.72;5013653;28;20141;-68
2023/01/20 11:41:19;;;;;;;1.23;0.38;;;;;;;5.83;33.06;97637.47;5006032;28;20075;-68
2023/01/20 11:43:46;;;;;;;0.90;0.30;;;;;;;5.78;30.06;97624.16;5024738;28;20131;-68
2023/01/20 11:46:15;;;;;;;1.08;0.40;;;;;;;5.86;30.39;97637.19;5027005;28;20024;-68
2023/01/20 11:48:41;;;;;;;0.57;0.28;;;;;;;5.85;31.23;97629.59;5023894;28;20200;-67
2023/01/20 11:51:23;;;;;;;0.90;0.28;;;;;;;5.84;28.94;97620.19;5037586;28;20021;-68
2023/01/20 11:53:49;;;;;;;0.52;0.20;;;;;;;5.44;31.02;97567.91;5017463;28;20021;-68
2023/01/20 11:56:19;;;;;;;0.55;0.20;;;;;;;5.77;31.58;97623.34;5022271;28;20098;-68
2023/01/20 11:59:03;;;;;;;1.02;0.40;;;;;;;5.88;33.12;97632.69;5023895;28;20029;-68
2023/01/20 12:01:48;;;;;;;0.22;0.20;;;;;;;5.83;30.27;97636.66;5038045;28;20032;-68
2023/01/20 12:04:35;;;;;;;1.60;0.40;;;;;;;5.83;32.63;97636.66;5004270;28;20049;-67